createdAt,value
2023-04-20T00:00:14.080Z,96184.38
2023-04-20T00:02:40.839Z,96172.47
2023-04-20T00:05:07.549Z,96174.03
2023-04-20T00:07:34.157Z,96175.56
2023-04-20T00:10:00.684Z,96164.13
2023-04-20T00:12:27.247Z,96166.78
2023-04-20T00:14:53.810Z,96164.44
2023-04-20T00:17:20.418Z,96163.41
2023-04-20T00:19:46.990Z,96150.81
2023-04-20T00:22:13.549Z,96155.38
2023-04-20T00:24:40.111Z,96156.09
2023-04-20T00:27:06.667Z,96153.78
2023-04-20T00:29:33.230Z,96144.59
2023-04-20T00:31:59.828Z,96141.63
2023-04-20T00:34:26.370Z,96142.69
2023-04-20T00:36:52.921Z,96144.25
2023-04-20T00:39:19.593Z,96138.09
2023-04-20T00:41:46.258Z,96137.47
2023-04-20T00:44:12.834Z,96126.72
2023-04-20T00:46:39.471Z,96129.00
2023-04-20T00:49:06.075Z,96123.25
2023-04-20T00:51:32.636Z,96125.56
2023-04-20T00:53:59.208Z,96117.91
2023-04-20T00:56:25.783Z,96124.06
2023-04-20T00:58:52.334Z,96117.19
2023-04-20T01:01:18.896Z,96113.44
2023-04-20T01:03:45.691Z,96116.47
2023-04-20T01:06:12.364Z,96114.94
2023-04-20T01:08:38.908Z,96119.03
2023-04-20T01:11:05.443Z,96114.03
2023-04-20T01:13:31.984Z,96110.63
2023-04-20T01:15:58.565Z,96107.59
2023-04-20T01:18:25.137Z,96106.44
2023-04-20T01:20:51.703Z,96100.72
2023-04-20T01:23:18.233Z,96101.03
2023-04-20T01:25:44.773Z,96091.09
2023-04-20T01:28:11.341Z,96087.41
2023-04-20T01:30:37.906Z,96074.34
2023-04-20T01:33:04.566Z,96074.47
2023-04-20T01:35:31.137Z,96075.47
2023-04-20T01:37:57.682Z,96084.63
2023-04-20T01:40:24.253Z,96089.63
2023-04-20T01:42:50.825Z,96088.44
2023-04-20T01:45:17.362Z,96078.47
2023-04-20T01:47:43.924Z,96075.16
2023-04-20T01:50:10.497Z,96075.16
2023-04-20T01:52:37.036Z,96066.81
2023-04-20T01:55:03.611Z,96064.44
2023-04-20T01:57:30.156Z,96060.22
2023-04-20T01:59:56.706Z,96062.09
2023-04-20T02:02:23.354Z,96053.72
2023-04-20T02:04:50.000Z,96048.41
2023-04-20T02:07:16.541Z,96044.22
2023-04-20T02:09:43.073Z,96043.84
2023-04-20T02:12:09.619Z,96040.19
2023-04-20T02:14:36.139Z,96041.59
2023-04-20T02:17:02.718Z,96033.94
2023-04-20T02:19:29.285Z,96027.91
2023-04-20T02:21:55.847Z,96035.13
2023-04-20T02:24:22.394Z,96032.41
2023-04-20T02:26:48.939Z,96034.38
2023-04-20T02:29:15.627Z,96033.16
2023-04-20T02:31:42.550Z,96031.59
2023-04-20T02:34:09.141Z,96026.72
2023-04-20T02:36:35.680Z,96024.75
2023-04-20T02:39:02.216Z,96017.94
2023-04-20T02:41:28.769Z,96022.84
2023-04-20T02:43:55.329Z,96017.59
2023-04-20T02:46:21.941Z,96017.88
2023-04-20T02:48:48.543Z,96014.81
2023-04-20T02:51:15.091Z,96016.38
2023-04-20T02:53:41.625Z,96010.25
2023-04-20T02:58:34.653Z,96015.53
2023-04-20T03:01:01.189Z,96010.63
2023-04-20T03:03:27.826Z,96006.00
2023-04-20T03:05:55.604Z,96006.00
2023-04-20T03:08:23.203Z,96001.41
2023-04-20T03:10:49.760Z,96012.41
2023-04-20T03:13:16.302Z,96007.16
2023-04-20T03:15:42.875Z,95999.84
2023-04-20T03:18:09.440Z,95999.16
2023-04-20T03:20:35.972Z,96003.72
2023-04-20T03:25:28.991Z,95989.34
2023-04-20T03:30:22.012Z,95985.91
2023-04-20T03:32:48.569Z,95986.63
2023-04-20T03:37:41.623Z,95987.00
2023-04-20T03:40:08.148Z,95985.84
2023-04-20T03:42:34.712Z,95983.97
2023-04-20T03:45:01.255Z,95991.19
2023-04-20T03:47:27.875Z,95990.88
2023-04-20T03:49:54.442Z,95991.97
2023-04-20T03:52:20.998Z,95991.22
2023-04-20T03:54:47.548Z,95987.00
2023-04-20T03:57:14.094Z,95979.63
2023-04-20T03:59:40.646Z,95984.66
2023-04-20T04:02:07.310Z,95984.28
2023-04-20T04:04:34.040Z,95983.97
2023-04-20T04:07:00.729Z,95977.09
2023-04-20T04:09:27.293Z,95985.09
2023-04-20T04:11:53.847Z,95979.00
2023-04-20T04:14:20.384Z,95977.53
2023-04-20T04:16:46.970Z,95981.66
2023-04-20T04:19:13.509Z,95981.75
2023-04-20T04:21:40.076Z,95980.53
2023-04-20T04:24:06.596Z,95978.28
2023-04-20T04:26:33.139Z,95978.56
2023-04-20T04:28:59.681Z,95977.56
2023-04-20T04:33:52.797Z,95968.31
2023-04-20T04:36:19.336Z,95968.34
2023-04-20T04:38:45.880Z,95971.47
2023-04-20T04:41:12.424Z,95968.00
2023-04-20T04:43:38.983Z,95973.00
2023-04-20T04:46:05.591Z,95968.09
2023-04-20T04:48:32.183Z,95969.22
2023-04-20T04:50:58.743Z,95964.66
2023-04-20T04:53:25.294Z,95962.13
2023-04-20T04:55:51.840Z,95961.22
2023-04-20T04:58:18.382Z,95960.72
2023-04-20T05:03:11.527Z,95964.91
2023-04-20T05:05:38.161Z,95959.66
2023-04-20T05:08:04.705Z,95960.78
2023-04-20T05:10:31.255Z,95962.69
2023-04-20T05:12:57.810Z,95960.78
2023-04-20T05:15:27.112Z,95967.25
2023-04-20T05:17:53.669Z,95969.13
2023-04-20T05:20:20.221Z,95965.69
2023-04-20T05:22:46.784Z,95964.56
2023-04-20T05:25:14.080Z,95968.09
2023-04-20T05:27:40.805Z,95967.22
2023-04-20T05:30:19.571Z,95966.13
2023-04-20T05:32:51.093Z,95971.47
2023-04-20T05:35:18.657Z,95971.91
2023-04-20T05:37:45.204Z,95973.72
2023-04-20T05:40:11.788Z,95967.63
2023-04-20T05:42:38.393Z,95969.56
2023-04-20T05:45:04.948Z,95967.56
2023-04-20T05:47:31.564Z,95967.63
2023-04-20T05:49:58.120Z,95973.41
2023-04-20T05:52:24.667Z,95969.91
2023-04-20T05:54:51.222Z,95970.22
2023-04-20T05:57:17.770Z,95971.00
2023-04-20T05:59:44.308Z,95969.53
2023-04-20T06:02:10.945Z,95972.97
2023-04-20T06:04:37.712Z,95976.06
2023-04-20T06:07:04.494Z,95975.63
2023-04-20T06:09:31.039Z,95976.78
2023-04-20T06:11:57.563Z,95970.75
2023-04-20T06:14:24.095Z,95970.34
2023-04-20T06:16:50.675Z,95970.34
2023-04-20T06:19:17.592Z,95969.22
2023-04-20T06:21:44.373Z,95969.88
2023-04-20T06:24:10.948Z,95972.22
2023-04-20T06:26:37.507Z,95972.59
2023-04-20T06:29:04.073Z,95967.66
2023-04-20T06:31:30.631Z,95963.88
2023-04-20T06:33:57.203Z,95958.97
2023-04-20T06:36:23.747Z,95964.28
2023-04-20T06:38:50.309Z,95958.66
2023-04-20T06:41:16.860Z,95954.09
2023-04-20T06:43:43.418Z,95960.13
2023-04-20T06:46:10.021Z,95953.38
2023-04-20T06:48:36.657Z,95959.78
2023-04-20T06:51:03.244Z,95955.56
2023-04-20T06:53:29.820Z,95958.00
2023-04-20T06:55:56.448Z,95951.88
2023-04-20T06:58:23.007Z,95953.47
2023-04-20T07:00:49.565Z,95949.59
2023-04-20T07:03:16.304Z,95947.34
2023-04-20T07:05:42.995Z,95948.91
2023-04-20T07:08:09.634Z,95945.06
2023-04-20T07:10:36.252Z,95943.94
2023-04-20T07:13:02.800Z,95951.19
2023-04-20T07:15:29.354Z,95942.44
2023-04-20T07:17:55.940Z,95944.38
2023-04-20T07:20:22.508Z,95950.00
2023-04-20T07:22:49.086Z,95944.38
2023-04-20T07:25:15.646Z,95940.56
2023-04-20T07:27:42.215Z,95946.16
2023-04-20T07:30:08.891Z,95943.06
2023-04-20T07:32:35.574Z,95940.06
2023-04-20T07:35:02.179Z,95934.75
2023-04-20T07:37:28.741Z,95945.72
2023-04-20T07:39:55.302Z,95945.50
2023-04-20T07:42:21.841Z,95941.38
2023-04-20T07:44:48.472Z,95941.22
2023-04-20T07:47:15.032Z,95943.16
2023-04-20T07:49:41.597Z,95939.78
2023-04-20T07:52:16.531Z,95946.22
2023-04-20T07:54:43.973Z,95951.16
2023-04-20T07:57:10.533Z,95951.56
2023-04-20T07:59:37.097Z,95954.63
2023-04-20T08:02:03.748Z,95952.00
2023-04-20T08:04:30.697Z,95952.81
2023-04-20T08:06:57.438Z,95949.72
2023-04-20T08:09:23.999Z,95945.56
2023-04-20T08:11:50.536Z,95946.31
2023-04-20T08:14:17.324Z,95944.34
2023-04-20T08:16:44.023Z,95945.13
2023-04-20T08:19:10.607Z,95951.22
2023-04-20T08:21:37.249Z,95947.81
2023-04-20T08:24:03.787Z,95951.19
2023-04-20T08:26:30.347Z,95957.34
2023-04-20T08:28:56.901Z,95956.13
2023-04-20T08:31:23.464Z,95950.09
2023-04-20T08:33:50.163Z,95960.78
2023-04-20T08:36:17.211Z,95964.22
2023-04-20T08:38:43.834Z,95956.59
2023-04-20T08:41:10.373Z,95965.03
2023-04-20T08:43:36.929Z,95963.44
2023-04-20T08:46:03.523Z,95965.03
2023-04-20T08:48:31.860Z,95970.75
2023-04-20T08:51:00.187Z,95977.97
2023-04-20T08:53:26.754Z,95974.97
2023-04-20T08:55:53.336Z,95977.53
2023-04-20T08:58:19.909Z,95971.09
2023-04-20T09:00:46.444Z,95972.41
2023-04-20T09:03:13.136Z,95977.34
2023-04-20T09:05:39.830Z,95978.34
2023-04-20T09:08:06.396Z,95981.47
2023-04-20T09:10:32.992Z,95987.09
2023-04-20T09:12:59.564Z,95977.97
2023-04-20T09:15:26.131Z,95987.81
2023-04-20T09:17:52.790Z,95979.09
2023-04-20T09:20:19.555Z,95986.59
2023-04-20T09:22:46.163Z,95983.47
2023-04-20T09:25:12.734Z,95989.25
2023-04-20T09:27:39.289Z,95984.66
2023-04-20T09:30:05.832Z,95994.19
2023-04-20T09:32:32.448Z,95985.78
2023-04-20T09:34:59.050Z,95982.88
2023-04-20T09:37:25.607Z,95977.16
2023-04-20T09:39:52.165Z,95979.44
2023-04-20T09:42:18.735Z,95989.03
2023-04-20T09:44:45.309Z,95982.13
2023-04-20T09:47:11.856Z,95978.78
2023-04-20T09:49:38.405Z,95974.88
2023-04-20T09:52:05.020Z,95981.31
2023-04-20T09:54:31.608Z,95979.53
2023-04-20T09:56:58.179Z,95982.66
2023-04-20T09:59:24.735Z,95981.78
2023-04-20T10:01:51.332Z,95980.31
2023-04-20T10:04:18.220Z,95981.44
2023-04-20T10:06:45.116Z,95984.09
2023-04-20T10:09:11.661Z,95981.84
2023-04-20T10:11:49.622Z,95979.66
2023-04-20T10:14:19.767Z,95975.34
2023-04-20T10:16:46.649Z,95974.97
2023-04-20T10:19:13.258Z,95977.47
2023-04-20T10:21:40.038Z,95969.91
2023-04-20T10:24:06.584Z,95966.53
2023-04-20T10:26:33.172Z,95969.56
2023-04-20T10:28:59.773Z,95960.22
2023-04-20T10:31:26.335Z,95969.66
2023-04-20T10:33:52.921Z,95964.41
2023-04-20T10:36:19.504Z,95965.09
2023-04-20T10:38:46.070Z,95965.53
2023-04-20T10:41:12.652Z,95966.66
2023-04-20T10:43:39.279Z,95965.19
2023-04-20T10:46:05.883Z,95968.25
2023-04-20T10:48:32.502Z,95968.91
2023-04-20T10:50:59.060Z,95980.34
2023-04-20T10:53:25.623Z,95985.53
2023-04-20T10:55:52.180Z,95990.88
2023-04-20T10:58:18.743Z,95977.22
2023-04-20T11:00:45.326Z,95974.97
2023-04-20T11:03:11.971Z,95976.38
2023-04-20T11:05:38.594Z,95976.44
2023-04-20T11:08:05.173Z,95966.09
2023-04-20T11:10:31.730Z,95958.47
2023-04-20T11:12:58.268Z,95954.94
2023-04-20T11:15:24.814Z,95949.66
2023-04-20T11:17:51.414Z,95957.72
2023-04-20T11:20:18.081Z,95949.22
2023-04-20T11:22:44.743Z,95945.22
2023-04-20T11:25:11.329Z,95949.28
2023-04-20T11:27:37.877Z,95948.41
2023-04-20T11:30:04.437Z,95947.28
2023-04-20T11:32:31.146Z,95942.13
2023-04-20T11:35:06.059Z,95933.00
2023-04-20T11:37:33.359Z,95929.94
2023-04-20T11:39:59.901Z,95922.06
2023-04-20T11:42:26.467Z,95934.59
2023-04-20T11:44:53.039Z,95930.47
2023-04-20T11:47:19.741Z,95918.84
2023-04-20T11:49:46.363Z,95910.84
2023-04-20T11:52:12.907Z,95912.47
2023-04-20T11:54:39.452Z,95918.59
2023-04-20T11:57:05.983Z,95913.25
2023-04-20T11:59:32.526Z,95922.78
2023-04-20T12:01:59.155Z,95915.16
2023-04-20T12:04:26.145Z,95916.31
2023-04-20T12:06:52.964Z,95917.44
2023-04-20T12:09:19.758Z,95913.25
2023-04-20T12:11:46.582Z,95904.47
2023-04-20T12:14:13.123Z,95900.31
2023-04-20T12:16:39.684Z,95915.94
2023-04-20T12:19:06.242Z,95915.06
2023-04-20T12:21:32.832Z,95915.34
2023-04-20T12:23:59.393Z,95922.31
2023-04-20T12:26:37.308Z,95929.84
2023-04-20T12:29:05.106Z,95918.16
2023-04-20T12:31:31.725Z,95925.88
2023-04-20T12:33:58.377Z,95924.31
2023-04-20T12:36:24.958Z,95928.13
2023-04-20T12:38:51.515Z,95929.66
2023-04-20T12:41:18.075Z,95932.28
2023-04-20T12:43:44.629Z,95932.63
2023-04-20T12:46:11.239Z,95934.75
2023-04-20T12:48:37.824Z,95941.91
2023-04-20T12:51:04.373Z,95941.88
2023-04-20T12:53:30.955Z,95941.91
2023-04-20T12:56:01.136Z,95938.47
2023-04-20T12:58:28.129Z,95952.47
2023-04-20T13:00:54.761Z,95940.00
2023-04-20T13:03:21.504Z,95937.59
2023-04-20T13:05:48.172Z,95939.56
2023-04-20T13:08:14.760Z,95936.88
2023-04-20T13:10:41.316Z,95936.22
2023-04-20T13:13:07.895Z,95939.94
2023-04-20T13:15:38.989Z,95939.19
2023-04-20T13:18:06.378Z,95949.09
2023-04-20T13:20:33.008Z,95950.22
2023-04-20T13:22:59.613Z,95945.25
2023-04-20T13:25:26.256Z,95935.34
2023-04-20T13:27:52.843Z,95947.91
2023-04-20T13:30:19.396Z,95950.16
2023-04-20T13:32:45.999Z,95958.53
2023-04-20T13:35:12.637Z,95955.03
2023-04-20T13:37:39.369Z,95952.63
2023-04-20T13:40:06.010Z,95957.28
2023-04-20T13:42:32.625Z,95961.25
2023-04-20T13:44:59.168Z,95966.09
2023-04-20T13:47:25.736Z,95974.84
2023-04-20T13:49:52.286Z,95976.53
2023-04-20T13:52:18.821Z,95969.91
2023-04-20T13:54:45.357Z,95980.19
2023-04-20T13:57:11.906Z,95990.44
2023-04-20T13:59:38.453Z,95991.25
2023-04-20T14:02:05.056Z,95986.28
2023-04-20T14:04:31.707Z,95985.91
2023-04-20T14:06:58.284Z,95978.66
2023-04-20T14:09:24.822Z,95978.25
2023-04-20T14:11:54.874Z,95981.69
2023-04-20T14:14:23.077Z,95983.22
2023-04-20T14:16:49.906Z,95977.47
2023-04-20T14:19:16.495Z,95968.75
2023-04-20T14:21:43.065Z,95970.75
2023-04-20T14:24:09.647Z,95970.78
2023-04-20T14:26:36.192Z,95963.47
2023-04-20T14:29:02.740Z,95968.63
2023-04-20T14:31:29.337Z,95967.69
2023-04-20T14:33:55.961Z,95965.34
2023-04-20T14:36:22.576Z,95969.16
2023-04-20T14:38:49.167Z,95970.75
2023-04-20T14:41:15.710Z,95966.88
2023-04-20T14:43:42.269Z,95973.78
2023-04-20T14:46:08.886Z,95976.78
2023-04-20T14:48:35.470Z,95981.91
2023-04-20T14:51:02.045Z,95974.22
2023-04-20T14:53:28.591Z,95982.16
2023-04-20T14:55:55.130Z,95973.00
2023-04-20T14:58:21.723Z,95980.25
2023-04-20T15:00:48.275Z,95973.78
2023-04-20T15:03:14.971Z,95978.75
2023-04-20T15:05:41.767Z,95972.97
2023-04-20T15:08:08.427Z,95970.31
2023-04-20T15:10:36.424Z,95974.47
2023-04-20T15:13:04.360Z,95970.69
2023-04-20T15:15:46.935Z,95966.03
2023-04-20T15:18:15.112Z,95960.34
2023-04-20T15:20:41.674Z,95966.72
2023-04-20T15:23:08.223Z,95967.81
2023-04-20T15:25:34.786Z,95962.16
2023-04-20T15:28:01.350Z,95968.88
2023-04-20T15:30:27.915Z,95977.00
2023-04-20T15:32:54.592Z,95980.31
2023-04-20T15:35:21.204Z,95986.41
2023-04-20T15:37:47.756Z,95989.47
2023-04-20T15:40:14.296Z,95980.03
2023-04-20T15:42:40.853Z,95975.81
2023-04-20T15:45:07.395Z,95977.34
2023-04-20T15:47:34.133Z,95980.72
2023-04-20T15:50:00.690Z,95982.25
2023-04-20T15:52:27.244Z,95983.81
2023-04-20T15:54:53.879Z,95985.00
2023-04-20T15:57:20.440Z,95982.69
2023-04-20T15:59:46.981Z,95985.13
2023-04-20T16:02:13.591Z,95983.31
2023-04-20T16:04:40.336Z,95988.19
2023-04-20T16:07:06.987Z,95987.88
2023-04-20T16:09:33.632Z,95982.31
2023-04-20T16:12:00.193Z,95992.50
2023-04-20T16:14:26.747Z,96002.72
2023-04-20T16:16:53.359Z,95998.97
2023-04-20T16:19:19.905Z,95996.97
2023-04-20T16:21:46.460Z,95998.88
2023-04-20T16:24:13.016Z,96001.91
2023-04-20T16:26:41.183Z,95991.34
2023-04-20T16:29:07.880Z,95999.75
2023-04-20T16:31:34.509Z,95988.16
2023-04-20T16:34:01.090Z,95984.38
2023-04-20T16:36:27.636Z,95984.00
2023-04-20T16:38:54.213Z,95987.38
2023-04-20T16:41:20.774Z,95981.41
2023-04-20T16:43:47.534Z,95984.88
2023-04-20T16:46:14.133Z,95978.41
2023-04-20T16:48:40.715Z,95985.63
2023-04-20T16:51:07.269Z,95986.75
2023-04-20T16:53:33.819Z,95986.75
2023-04-20T16:56:00.379Z,95982.53
2023-04-20T16:58:26.951Z,95982.88
2023-04-20T17:00:53.549Z,95987.13
2023-04-20T17:03:20.366Z,95979.88
2023-04-20T17:05:47.113Z,95975.69
2023-04-20T17:08:13.675Z,95973.41
2023-04-20T17:10:40.223Z,95971.88
2023-04-20T17:13:06.773Z,95971.47
2023-04-20T17:15:33.336Z,95975.69
2023-04-20T17:17:59.961Z,95978.09
2023-04-20T17:20:26.642Z,95982.56
2023-04-20T17:22:53.229Z,95979.91
2023-04-20T17:25:19.805Z,95979.91
2023-04-20T17:27:46.349Z,95971.53
2023-04-20T17:30:12.915Z,95974.66
2023-04-20T17:32:39.467Z,95976.53
2023-04-20T17:35:06.109Z,95986.28
2023-04-20T17:37:32.694Z,95995.41
2023-04-20T17:39:59.250Z,95992.25
2023-04-20T17:42:25.832Z,95987.44
2023-04-20T17:44:52.426Z,95986.78
2023-04-20T17:47:19.008Z,95983.06
2023-04-20T17:49:45.599Z,95983.09
2023-04-20T17:52:12.141Z,95984.22
2023-04-20T17:54:38.710Z,95989.50
2023-04-20T17:57:05.272Z,95988.09
2023-04-20T17:59:31.827Z,95986.59
2023-04-20T18:01:58.492Z,95988.97
2023-04-20T18:04:25.605Z,95989.47
2023-04-20T18:06:52.708Z,95988.56
2023-04-20T18:09:19.285Z,95989.41
2023-04-20T18:11:45.851Z,95987.56
2023-04-20T18:14:12.409Z,95982.66
2023-04-20T18:16:38.981Z,95990.91
2023-04-20T18:19:05.542Z,95992.34
2023-04-20T18:21:32.104Z,95997.69
2023-04-20T18:23:58.679Z,95993.88
2023-04-20T18:26:25.247Z,95989.25
2023-04-20T18:28:51.818Z,95992.75
2023-04-20T18:31:18.428Z,95982.47
2023-04-20T18:33:45.039Z,95987.34
2023-04-20T18:36:11.658Z,95987.38
2023-04-20T18:38:38.226Z,95990.69
2023-04-20T18:41:04.776Z,95987.75
2023-04-20T18:43:31.449Z,95988.09
2023-04-20T18:45:58.057Z,95983.56
2023-04-20T18:48:24.636Z,95993.81
2023-04-20T18:50:51.205Z,95995.00
2023-04-20T18:53:17.754Z,95993.06
2023-04-20T18:55:44.319Z,95995.03
2023-04-20T18:58:10.884Z,95992.75
2023-04-20T19:00:37.497Z,95990.47
2023-04-20T19:03:04.266Z,95997.00
2023-04-20T19:05:30.952Z,96004.63
2023-04-20T19:07:57.509Z,96002.19
2023-04-20T19:10:24.072Z,96000.69
2023-04-20T19:12:50.627Z,95999.25
2023-04-20T19:15:17.210Z,95993.63
2023-04-20T19:17:43.807Z,96002.75
2023-04-20T19:20:10.383Z,95997.09
2023-04-20T19:22:36.964Z,95991.34
2023-04-20T19:25:03.528Z,95993.25
2023-04-20T19:27:30.075Z,95998.53
2023-04-20T19:29:56.643Z,95997.78
2023-04-20T19:32:23.255Z,95995.13
2023-04-20T19:34:49.817Z,95998.88
2023-04-20T19:37:16.383Z,96002.31
2023-04-20T19:39:42.942Z,96004.97
2023-04-20T19:42:09.488Z,96016.41
2023-04-20T19:44:36.052Z,96008.44
2023-04-20T19:47:02.598Z,96009.91
2023-04-20T19:49:29.165Z,96013.44
2023-04-20T19:51:55.736Z,96008.81
2023-04-20T19:54:22.309Z,96013.44
2023-04-20T19:56:48.884Z,96013.69
2023-04-20T19:59:15.499Z,96015.22
2023-04-20T20:01:42.117Z,96015.97
2023-04-20T20:04:08.889Z,96021.63
2023-04-20T20:06:35.600Z,96017.50
2023-04-20T20:09:02.198Z,96015.56
2023-04-20T20:11:28.749Z,96015.09
2023-04-20T20:13:55.345Z,96017.44
2023-04-20T20:16:21.979Z,96013.66
2023-04-20T20:18:48.570Z,96009.91
2023-04-20T20:21:15.120Z,96009.53
2023-04-20T20:23:41.677Z,96007.66
2023-04-20T20:26:08.265Z,96008.41
2023-04-20T20:28:34.840Z,96015.97
2023-04-20T20:31:01.542Z,96009.97
2023-04-20T20:33:28.197Z,96012.25
2023-04-20T20:35:54.771Z,96016.78
2023-04-20T20:38:21.335Z,96006.88
2023-04-20T20:40:47.893Z,96008.31
2023-04-20T20:43:14.440Z,96009.88
2023-04-20T20:45:41.008Z,96014.78
2023-04-20T20:48:07.629Z,96013.75
2023-04-20T20:50:34.279Z,96015.56
2023-04-20T20:53:00.874Z,96018.97
2023-04-20T20:55:27.471Z,96012.13
2023-04-20T20:57:54.077Z,96015.56
2023-04-20T21:00:20.665Z,96009.13
2023-04-20T21:02:47.368Z,96015.91
2023-04-20T21:05:13.999Z,96010.56
2023-04-20T21:07:40.567Z,96009.44
2023-04-20T21:10:07.124Z,96018.19
2023-04-20T21:12:33.678Z,96012.53
2023-04-20T21:15:00.218Z,96018.56
2023-04-20T21:17:26.814Z,96021.25
2023-04-20T21:19:53.393Z,96017.41
2023-04-20T21:22:19.962Z,96024.31
2023-04-20T21:24:46.528Z,96024.75
2023-04-20T21:27:13.087Z,96036.09
2023-04-20T21:29:39.818Z,96029.22
2023-04-20T21:32:06.425Z,96031.97
2023-04-20T21:34:33.039Z,96031.09
2023-04-20T21:36:59.580Z,96030.41
2023-04-20T21:39:26.124Z,96035.72
2023-04-20T21:41:52.667Z,96033.44
2023-04-20T21:44:19.217Z,96031.09
2023-04-20T21:46:45.790Z,96033.41
2023-04-20T21:49:12.350Z,96026.84
2023-04-20T21:51:38.882Z,96027.31
2023-04-20T21:54:05.435Z,96027.63
2023-04-20T21:56:31.986Z,96028.34
2023-04-20T21:58:58.559Z,96024.97
2023-04-20T22:01:25.169Z,96024.53
2023-04-20T22:03:51.968Z,96018.03
2023-04-20T22:06:18.606Z,96021.94
2023-04-20T22:08:45.166Z,96017.63
2023-04-20T22:11:11.727Z,96025.72
2023-04-20T22:13:38.290Z,96023.44
2023-04-20T22:16:04.923Z,96027.63
2023-04-20T22:18:31.555Z,96026.50
2023-04-20T22:20:58.106Z,96019.56
2023-04-20T22:23:24.650Z,96020.34
2023-04-20T22:25:51.229Z,96024.06
2023-04-20T22:28:17.808Z,96033.31
2023-04-20T22:30:44.354Z,96020.00
2023-04-20T22:33:10.989Z,96027.84
2023-04-20T22:35:37.579Z,96037.09
2023-04-20T22:38:04.142Z,96030.22
2023-04-20T22:40:30.706Z,96029.75
2023-04-20T22:42:57.285Z,96029.16
2023-04-20T22:45:23.863Z,96035.28
2023-04-20T22:47:50.433Z,96028.63
2023-04-20T22:50:17.020Z,96037.41
2023-04-20T22:52:43.628Z,96034.03
2023-04-20T22:55:10.182Z,96031.06
2023-04-20T22:57:36.717Z,96028.34
2023-04-20T23:00:03.276Z,96035.06
2023-04-20T23:02:29.925Z,96029.69
2023-04-20T23:07:23.078Z,96027.47
2023-04-20T23:09:49.684Z,96032.06
2023-04-20T23:12:16.246Z,96027.81
2023-04-20T23:14:42.828Z,96030.84
2023-04-20T23:17:09.394Z,96029.72
2023-04-20T23:19:35.962Z,96028.94
2023-04-20T23:22:02.528Z,96031.25
2023-04-20T23:26:55.604Z,96020.63
2023-04-20T23:29:22.220Z,96018.25
2023-04-20T23:31:48.854Z,96020.53
2023-04-20T23:34:15.467Z,96018.63
2023-04-20T23:36:42.009Z,96024.03
2023-04-20T23:39:08.560Z,96019.06
2023-04-20T23:44:01.662Z,96015.16
2023-04-20T23:46:28.270Z,96010.19
2023-04-20T23:48:54.873Z,96005.28
2023-04-20T23:51:21.400Z,96011.03
2023-04-20T23:53:47.943Z,96005.28
2023-04-20T23:56:14.512Z,95999.53
2023-04-20T23:58:41.088Z,95998.09
